createdAt,value
2023-02-11T00:00:27.768Z,-5.83
2023-02-11T00:03:30.894Z,-5.84
2023-02-11T00:06:35.453Z,-6.06
2023-02-11T00:09:38.424Z,-5.88
2023-02-11T00:12:41.090Z,-5.98
2023-02-11T00:15:44.036Z,-6.13
2023-02-11T00:18:47.424Z,-6.18
2023-02-11T00:21:50.539Z,-6.13
2023-02-11T00:24:53.736Z,-6.05
2023-02-11T00:27:56.881Z,-6.17
2023-02-11T00:31:01.694Z,-6.12
2023-02-11T00:34:04.933Z,-6.19
2023-02-11T00:37:08.170Z,-6.17
2023-02-11T00:40:11.822Z,-6.18
2023-02-11T00:43:14.451Z,-6.22
2023-02-11T00:46:17.569Z,-6.22
2023-02-11T00:49:20.256Z,-6.15
2023-02-11T00:52:24.477Z,-6.00
2023-02-11T00:55:27.267Z,-5.99
2023-02-11T00:58:31.447Z,-5.90
2023-02-11T01:01:34.904Z,-5.89
2023-02-11T01:04:38.133Z,-6.05
2023-02-11T01:07:40.837Z,-5.92
2023-02-11T01:10:44.104Z,-5.89
2023-02-11T01:13:48.136Z,-5.89
2023-02-11T01:16:51.633Z,-5.84
2023-02-11T01:19:56.901Z,-5.84
2023-02-11T01:22:59.910Z,-5.89
2023-02-11T01:26:02.712Z,-5.93
2023-02-11T01:29:06.017Z,-5.98
2023-02-11T01:32:08.821Z,-6.02
2023-02-11T01:35:11.856Z,-5.94
2023-02-11T01:38:26.200Z,-5.97
2023-02-11T01:41:29.199Z,-6.15
2023-02-11T01:44:36.922Z,-5.93
2023-02-11T01:47:39.881Z,-5.94
2023-02-11T01:50:43.288Z,-5.95
2023-02-11T01:54:06.600Z,-6.18
2023-02-11T01:57:27.792Z,-5.94
2023-02-11T02:00:36.825Z,-5.85
2023-02-11T02:03:43.857Z,-5.97
2023-02-11T02:06:56.044Z,-5.74
2023-02-11T02:10:04.649Z,-5.95
2023-02-11T02:13:07.391Z,-5.83
2023-02-11T02:16:16.721Z,-5.85
2023-02-11T02:19:34.911Z,-5.85
2023-02-11T02:23:10.204Z,-5.83
2023-02-11T02:26:21.618Z,-5.77
2023-02-11T02:29:33.580Z,-5.79
2023-02-11T02:32:54.745Z,-5.89
2023-02-11T02:36:06.070Z,-6.11
2023-02-11T02:39:24.180Z,-5.97
2023-02-11T02:42:27.200Z,-6.19
2023-02-11T02:45:30.075Z,-6.22
2023-02-11T02:48:35.766Z,-6.18
2023-02-11T02:52:05.419Z,-6.18
2023-02-11T02:55:11.327Z,-6.19
2023-02-11T02:58:35.695Z,-6.16
2023-02-11T03:01:38.675Z,-6.11
2023-02-11T03:05:06.225Z,-6.07
2023-02-11T03:08:17.231Z,-6.25
2023-02-11T03:11:22.244Z,-6.19
2023-02-11T03:14:26.896Z,-6.32
2023-02-11T03:17:34.025Z,-6.21
2023-02-11T03:20:39.117Z,-6.32
2023-02-11T03:23:47.967Z,-6.22
2023-02-11T03:26:53.834Z,-6.48
2023-02-11T03:30:10.481Z,-6.39
2023-02-11T03:33:53.324Z,-6.59
2023-02-11T03:37:18.085Z,-6.42
2023-02-11T03:40:29.701Z,-6.57
2023-02-11T03:43:37.505Z,-6.33
2023-02-11T03:46:43.584Z,-6.33
2023-02-11T03:49:49.908Z,-6.40
2023-02-11T03:52:55.752Z,-6.19
2023-02-11T03:56:02.719Z,-6.09
2023-02-11T03:59:05.732Z,-6.08
2023-02-11T04:02:08.436Z,-6.14
2023-02-11T04:05:15.634Z,-6.13
2023-02-11T04:08:18.383Z,-6.24
2023-02-11T04:11:21.334Z,-6.27
2023-02-11T04:14:23.983Z,-6.09
2023-02-11T04:17:26.972Z,-6.12
2023-02-11T04:20:30.045Z,-6.08
2023-02-11T04:23:32.992Z,-6.30
2023-02-11T04:26:35.686Z,-6.35
2023-02-11T04:29:38.788Z,-6.20
2023-02-11T04:32:41.552Z,-6.33
2023-02-11T04:35:45.018Z,-6.33
2023-02-11T04:38:47.733Z,-6.11
2023-02-11T04:41:50.768Z,-6.16
2023-02-11T04:44:53.562Z,-6.08
2023-02-11T04:47:56.572Z,-6.26
2023-02-11T04:50:59.951Z,-6.42
2023-02-11T04:54:02.914Z,-6.54
2023-02-11T04:57:05.824Z,-6.63
2023-02-11T05:00:10.156Z,-6.76
2023-02-11T05:03:13.365Z,-6.97
2023-02-11T05:06:16.628Z,-6.88
2023-02-11T05:09:19.411Z,-6.92
2023-02-11T05:12:22.604Z,-7.12
2023-02-11T05:15:25.401Z,-7.04
2023-02-11T05:18:28.290Z,-7.07
2023-02-11T05:21:31.087Z,-7.26
2023-02-11T05:24:34.940Z,-7.24
2023-02-11T05:27:37.564Z,-7.05
2023-02-11T05:30:40.618Z,-7.18
2023-02-11T05:33:43.492Z,-7.17
2023-02-11T05:36:46.496Z,-7.06
2023-02-11T05:39:49.346Z,-7.16
2023-02-11T05:42:52.316Z,-7.18
2023-02-11T05:45:55.500Z,-7.25
2023-02-11T05:48:58.665Z,-7.33
2023-02-11T05:52:01.527Z,-7.31
2023-02-11T05:55:04.810Z,-7.32
2023-02-11T05:58:08.262Z,-7.39
2023-02-11T06:01:11.181Z,-7.30
2023-02-11T06:04:14.140Z,-7.27
2023-02-11T06:07:17.546Z,-7.26
2023-02-11T06:10:20.621Z,-7.23
2023-02-11T06:13:23.396Z,-7.16
2023-02-11T06:16:26.604Z,-7.12
2023-02-11T06:19:29.410Z,-7.08
2023-02-11T06:22:32.414Z,-6.97
2023-02-11T06:25:35.203Z,-6.89
2023-02-11T06:28:41.861Z,-6.91
2023-02-11T06:31:44.743Z,-6.68
2023-02-11T06:34:47.849Z,-6.65
2023-02-11T06:37:50.541Z,-5.06
2023-02-11T06:40:53.681Z,-2.53
2023-02-11T06:43:56.419Z,-0.58
2023-02-11T06:46:59.385Z,1.10
2023-02-11T06:50:02.134Z,2.65
2023-02-11T06:53:05.173Z,4.07
2023-02-11T06:56:10.731Z,5.48
2023-02-11T06:59:19.119Z,6.28
2023-02-11T07:02:22.082Z,6.47
2023-02-11T07:05:25.128Z,6.78
2023-02-11T07:08:27.946Z,6.06
2023-02-11T07:11:34.603Z,6.76
2023-02-11T07:14:37.356Z,7.05
2023-02-11T07:17:40.357Z,8.74
2023-02-11T07:20:43.112Z,8.72
2023-02-11T07:23:46.575Z,9.56
2023-02-11T07:26:49.264Z,9.40
2023-02-11T07:29:52.376Z,8.59
2023-02-11T07:32:56.495Z,9.10
2023-02-11T07:36:02.944Z,9.28
2023-02-11T07:39:05.688Z,9.81
2023-02-11T07:42:08.836Z,7.12
2023-02-11T07:45:11.703Z,5.14
2023-02-11T07:48:14.652Z,3.48
2023-02-11T07:51:20.166Z,2.72
2023-02-11T07:54:23.231Z,2.00
2023-02-11T07:57:26.070Z,1.68
2023-02-11T08:00:29.188Z,1.57
2023-02-11T08:03:33.279Z,5.06
2023-02-11T08:06:40.012Z,9.19
2023-02-11T08:09:43.036Z,11.70
2023-02-11T08:12:45.874Z,9.76
2023-02-11T08:15:49.263Z,9.38
2023-02-11T08:18:54.092Z,7.08
2023-02-11T08:21:57.719Z,5.58
2023-02-11T08:25:00.582Z,4.49
2023-02-11T08:28:03.732Z,4.30
2023-02-11T08:31:18.981Z,6.87
2023-02-11T08:34:22.068Z,5.10
2023-02-11T08:37:24.896Z,4.28
2023-02-11T08:40:27.959Z,4.70
2023-02-11T08:43:31.122Z,3.99
2023-02-11T08:46:34.192Z,3.79
2023-02-11T08:49:37.538Z,3.47
2023-02-11T08:52:40.664Z,3.05
2023-02-11T08:55:54.677Z,2.74
2023-02-11T08:58:57.654Z,2.28
2023-02-11T09:02:00.498Z,2.02
2023-02-11T09:05:03.617Z,2.05
2023-02-11T09:08:06.367Z,1.81
2023-02-11T09:11:10.468Z,2.06
2023-02-11T09:14:18.477Z,2.39
2023-02-11T09:17:21.493Z,2.74
2023-02-11T09:20:26.449Z,3.01
2023-02-11T09:23:29.431Z,3.49
2023-02-11T09:26:34.259Z,3.62
2023-02-11T09:29:37.665Z,4.04
2023-02-11T09:32:40.655Z,4.19
2023-02-11T09:35:43.608Z,4.42
2023-02-11T09:38:47.152Z,4.91
2023-02-11T09:42:32.434Z,4.82
2023-02-11T09:45:35.555Z,4.85
2023-02-11T09:48:41.954Z,4.75
2023-02-11T09:52:28.088Z,4.82
2023-02-11T09:55:38.000Z,4.56
2023-02-11T09:58:43.584Z,4.66
2023-02-11T10:01:55.212Z,4.78
2023-02-11T10:05:34.588Z,4.49
2023-02-11T10:08:51.305Z,4.69
2023-02-11T10:12:28.425Z,4.93
2023-02-11T10:15:52.014Z,4.52
2023-02-11T10:19:13.982Z,4.65
2023-02-11T10:22:25.682Z,4.32
2023-02-11T10:25:37.123Z,4.34
2023-02-11T10:28:42.323Z,4.15
2023-02-11T10:31:47.550Z,4.04
2023-02-11T10:34:52.434Z,4.25
2023-02-11T10:37:56.220Z,4.08
2023-02-11T10:40:58.939Z,3.90
2023-02-11T10:44:02.053Z,3.83
2023-02-11T10:47:12.924Z,3.42
2023-02-11T10:50:29.892Z,3.57
2023-02-11T10:53:37.625Z,3.45
2023-02-11T10:56:53.513Z,3.42
2023-02-11T11:00:05.449Z,3.30
2023-02-11T11:03:20.962Z,3.27
2023-02-11T11:06:32.911Z,3.08
2023-02-11T11:09:54.148Z,3.41
2023-02-11T11:12:56.844Z,3.66
2023-02-11T11:16:17.339Z,3.88
2023-02-11T11:19:25.371Z,3.97
2023-02-11T11:22:29.278Z,4.27
2023-02-11T11:25:32.269Z,4.55
2023-02-11T11:28:50.624Z,4.58
2023-02-11T11:31:58.057Z,4.83
2023-02-11T11:35:06.007Z,5.11
2023-02-11T11:38:14.036Z,5.42
2023-02-11T11:41:29.287Z,5.51
2023-02-11T11:44:36.320Z,5.79
2023-02-11T11:48:00.663Z,5.88
2023-02-11T11:51:12.741Z,6.01
2023-02-11T11:54:20.108Z,6.34
2023-02-11T11:57:28.752Z,6.49
2023-02-11T12:00:44.084Z,6.21
2023-02-11T12:04:02.692Z,6.37
2023-02-11T12:07:14.473Z,5.97
2023-02-11T12:10:32.071Z,5.49
2023-02-11T12:14:12.169Z,5.32
2023-02-11T12:17:25.034Z,5.37
2023-02-11T12:20:39.938Z,5.43
2023-02-11T12:23:58.477Z,5.43
2023-02-11T12:27:10.933Z,6.02
2023-02-11T12:30:32.955Z,6.05
2023-02-11T12:33:58.590Z,5.97
2023-02-11T12:37:16.563Z,6.10
2023-02-11T12:40:37.211Z,5.87
2023-02-11T12:43:43.507Z,6.10
2023-02-11T12:46:55.247Z,6.19
2023-02-11T12:50:07.712Z,6.27
2023-02-11T12:53:40.596Z,6.29
2023-02-11T12:56:55.460Z,6.18
2023-02-11T13:00:22.619Z,6.27
2023-02-11T13:03:35.045Z,6.79
2023-02-11T13:06:42.406Z,7.16
2023-02-11T13:09:53.961Z,7.34
2023-02-11T13:13:16.697Z,7.19
2023-02-11T13:16:40.139Z,7.14
2023-02-11T13:19:54.649Z,6.89
2023-02-11T13:23:39.448Z,6.22
2023-02-11T13:26:50.917Z,6.28
2023-02-11T13:30:30.216Z,5.94
2023-02-11T13:33:43.043Z,5.64
2023-02-11T13:36:57.609Z,5.59
2023-02-11T13:40:01.665Z,5.44
2023-02-11T13:43:07.550Z,5.48
2023-02-11T13:46:15.663Z,5.40
2023-02-11T13:49:22.356Z,5.48
2023-02-11T13:52:30.571Z,5.53
2023-02-11T13:55:34.983Z,5.54
2023-02-11T13:58:49.152Z,5.39
2023-02-11T14:02:36.275Z,5.45
2023-02-11T14:06:27.197Z,5.35
2023-02-11T14:09:36.325Z,5.36
2023-02-11T14:12:39.362Z,5.32
2023-02-11T14:15:42.028Z,5.29
2023-02-11T14:18:45.064Z,5.04
2023-02-11T14:21:48.091Z,4.95
2023-02-11T14:24:55.636Z,5.19
2023-02-11T14:28:26.733Z,5.11
2023-02-11T14:31:43.147Z,5.04
2023-02-11T14:35:06.852Z,4.96
2023-02-11T14:38:31.428Z,4.89
2023-02-11T14:41:46.007Z,4.85
2023-02-11T14:44:51.900Z,4.78
2023-02-11T14:48:03.609Z,4.80
2023-02-11T14:51:15.563Z,4.80
2023-02-11T14:54:24.109Z,4.69
2023-02-11T14:57:28.090Z,4.65
2023-02-11T15:00:30.908Z,4.67
2023-02-11T15:03:42.606Z,4.61
2023-02-11T15:06:49.802Z,4.58
2023-02-11T15:09:54.195Z,4.53
2023-02-11T15:12:58.472Z,4.52
2023-02-11T15:16:07.034Z,4.31
2023-02-11T15:19:25.716Z,4.39
2023-02-11T15:22:33.192Z,4.33
2023-02-11T15:25:43.432Z,4.33
2023-02-11T15:28:52.150Z,4.22
2023-02-11T15:32:14.748Z,4.18
2023-02-11T15:35:18.916Z,4.13
2023-02-11T15:38:21.976Z,4.21
2023-02-11T15:41:38.236Z,4.14
2023-02-11T15:44:41.527Z,4.12
2023-02-11T15:47:52.082Z,4.05
2023-02-11T15:51:01.576Z,3.99
2023-02-11T15:54:26.879Z,3.94
2023-02-11T15:57:29.984Z,3.90
2023-02-11T16:00:45.056Z,3.88
2023-02-11T16:03:50.891Z,3.86
2023-02-11T16:06:55.380Z,3.80
2023-02-11T16:09:58.911Z,3.78
2023-02-11T16:13:07.800Z,3.72
2023-02-11T16:16:23.695Z,3.60
2023-02-11T16:19:28.328Z,3.52
2023-02-11T16:22:35.474Z,3.42
2023-02-11T16:25:38.366Z,3.39
2023-02-11T16:28:41.663Z,3.24
2023-02-11T16:31:47.366Z,3.28
2023-02-11T16:34:52.851Z,3.25
2023-02-11T16:37:55.762Z,3.10
2023-02-11T16:40:59.056Z,3.08
2023-02-11T16:44:02.041Z,2.99
2023-02-11T16:47:08.018Z,2.98
2023-02-11T16:50:19.572Z,2.92
2023-02-11T16:53:24.764Z,2.80
2023-02-11T16:56:28.021Z,2.87
2023-02-11T16:59:31.578Z,2.79
2023-02-11T17:02:37.088Z,2.75
2023-02-11T17:05:54.714Z,2.56
2023-02-11T17:08:58.702Z,2.58
2023-02-11T17:12:02.022Z,2.56
2023-02-11T17:15:07.538Z,2.62
2023-02-11T17:18:14.378Z,2.68
2023-02-11T17:21:18.811Z,2.57
2023-02-11T17:24:22.469Z,2.62
2023-02-11T17:27:25.328Z,2.60
2023-02-11T17:30:28.517Z,2.57
2023-02-11T17:33:31.509Z,2.53
2023-02-11T17:36:35.515Z,2.34
2023-02-11T17:39:40.266Z,2.38
2023-02-11T17:42:43.702Z,2.23
2023-02-11T17:45:46.496Z,2.29
2023-02-11T17:48:50.468Z,2.29
2023-02-11T17:51:53.447Z,2.16
2023-02-11T17:54:58.215Z,2.18
2023-02-11T17:58:02.692Z,2.20
2023-02-11T18:01:06.119Z,2.03
2023-02-11T18:04:14.452Z,2.14
2023-02-11T18:07:19.487Z,2.03
2023-02-11T18:10:22.798Z,1.89
2023-02-11T18:13:25.983Z,1.69
2023-02-11T18:16:30.523Z,1.61
2023-02-11T18:19:35.944Z,1.68
2023-02-11T18:22:40.967Z,1.53
2023-02-11T18:25:44.324Z,1.61
2023-02-11T18:28:48.058Z,1.56
2023-02-11T18:31:51.069Z,1.53
2023-02-11T18:34:54.333Z,1.44
2023-02-11T18:37:58.063Z,1.35
2023-02-11T18:41:01.458Z,1.34
2023-02-11T18:44:05.027Z,1.15
2023-02-11T18:47:08.412Z,1.24
2023-02-11T18:50:13.819Z,1.17
2023-02-11T18:53:17.233Z,1.17
2023-02-11T18:56:23.088Z,1.15
2023-02-11T18:59:26.701Z,1.11
2023-02-11T19:02:29.808Z,1.10
2023-02-11T19:05:47.402Z,1.17
2023-02-11T19:08:51.590Z,1.11
2023-02-11T19:11:55.441Z,1.37
2023-02-11T19:15:00.540Z,1.38
2023-02-11T19:18:03.904Z,1.39
2023-02-11T19:21:11.021Z,1.52
2023-02-11T19:24:19.039Z,1.49
2023-02-11T19:27:21.990Z,1.45
2023-02-11T19:30:25.252Z,1.37
2023-02-11T19:33:28.581Z,1.38
2023-02-11T19:36:32.133Z,1.29
2023-02-11T19:39:35.119Z,1.33
2023-02-11T19:42:38.989Z,1.34
2023-02-11T19:45:41.908Z,1.27
2023-02-11T19:48:45.723Z,1.12
2023-02-11T19:51:52.762Z,0.85
2023-02-11T19:54:56.604Z,0.79
2023-02-11T19:57:59.548Z,0.98
2023-02-11T20:01:11.034Z,1.10
2023-02-11T20:04:16.065Z,1.19
2023-02-11T20:07:19.372Z,1.26
2023-02-11T20:10:24.440Z,1.36
2023-02-11T20:13:28.002Z,1.46
2023-02-11T20:16:46.895Z,1.51
2023-02-11T20:19:50.885Z,1.46
2023-02-11T20:22:54.188Z,1.37
2023-02-11T20:25:57.165Z,1.28
2023-02-11T20:29:02.384Z,1.27
2023-02-11T20:32:07.150Z,1.32
2023-02-11T20:35:10.945Z,1.40
2023-02-11T20:38:14.132Z,1.46
2023-02-11T20:41:25.565Z,1.38
2023-02-11T20:44:28.574Z,1.63
2023-02-11T20:47:31.819Z,1.74
2023-02-11T20:50:35.166Z,2.55
2023-02-11T20:53:40.264Z,3.16
2023-02-11T20:56:45.526Z,4.19
2023-02-11T20:59:50.404Z,4.78
2023-02-11T21:02:53.616Z,4.96
2023-02-11T21:06:03.622Z,5.18
2023-02-11T21:09:10.665Z,5.21
2023-02-11T21:12:13.942Z,5.34
2023-02-11T21:15:16.869Z,5.40
2023-02-11T21:18:19.856Z,5.24
2023-02-11T21:21:23.237Z,5.31
2023-02-11T21:24:26.416Z,5.31
2023-02-11T21:27:33.116Z,5.39
2023-02-11T21:30:40.424Z,5.40
2023-02-11T21:33:43.327Z,5.39
2023-02-11T21:36:47.129Z,5.45
2023-02-11T21:39:50.153Z,5.36
2023-02-11T21:42:53.702Z,5.45
2023-02-11T21:45:57.176Z,5.43
2023-02-11T21:49:00.603Z,5.30
2023-02-11T21:52:03.743Z,5.37
2023-02-11T21:55:07.101Z,5.29
2023-02-11T21:58:12.121Z,5.41
2023-02-11T22:01:18.221Z,5.40
2023-02-11T22:04:21.821Z,5.33
2023-02-11T22:07:26.057Z,5.24
2023-02-11T22:10:29.101Z,5.20
2023-02-11T22:13:31.851Z,5.15
2023-02-11T22:16:35.351Z,4.99
2023-02-11T22:19:38.121Z,5.06
2023-02-11T22:22:41.174Z,5.02
2023-02-11T22:25:43.833Z,5.02
2023-02-11T22:28:47.357Z,5.03
2023-02-11T22:31:50.354Z,4.94
2023-02-11T22:34:53.695Z,5.06
2023-02-11T22:37:56.356Z,4.98
2023-02-11T22:41:04.669Z,5.08
2023-02-11T22:44:07.917Z,5.11
2023-02-11T22:47:10.982Z,5.08
2023-02-11T22:50:13.670Z,5.09
2023-02-11T22:53:16.739Z,5.23
2023-02-11T22:56:19.553Z,5.25
2023-02-11T22:59:22.624Z,5.26
2023-02-11T23:02:25.384Z,5.26
2023-02-11T23:05:28.569Z,5.27
2023-02-11T23:08:32.381Z,5.27
2023-02-11T23:11:35.896Z,5.31
2023-02-11T23:14:38.597Z,5.30
2023-02-11T23:17:41.574Z,5.31
2023-02-11T23:20:44.221Z,5.28
2023-02-11T23:23:48.998Z,5.14
2023-02-11T23:26:51.671Z,5.22
2023-02-11T23:29:57.880Z,5.20
2023-02-11T23:33:00.536Z,5.15
2023-02-11T23:36:03.715Z,5.12
2023-02-11T23:39:06.439Z,5.19
2023-02-11T23:42:09.549Z,5.19
2023-02-11T23:45:12.712Z,5.24
2023-02-11T23:48:15.698Z,5.16
2023-02-11T23:51:19.256Z,5.08
2023-02-11T23:54:22.500Z,4.96
2023-02-11T23:57:25.144Z,4.82
